createdAt,value
2017-09-04T00:00:15.054Z,99.90
2017-09-04T00:02:42.676Z,99.90
2017-09-04T00:05:10.589Z,99.90
2017-09-04T00:07:38.275Z,99.90
2017-09-04T00:10:05.973Z,99.90
2017-09-04T00:12:33.630Z,99.90
2017-09-04T00:15:01.337Z,99.90
2017-09-04T00:17:29.000Z,99.90
2017-09-04T00:19:56.651Z,99.90
2017-09-04T00:22:24.408Z,99.90
2017-09-04T00:24:52.023Z,99.90
2017-09-04T00:27:19.681Z,99.90
2017-09-04T00:29:47.317Z,99.90
2017-09-04T00:32:14.951Z,99.90
2017-09-04T00:34:42.587Z,99.90
2017-09-04T00:37:10.560Z,99.90
2017-09-04T00:39:38.208Z,99.90
2017-09-04T00:42:05.855Z,99.90
2017-09-04T00:44:33.497Z,99.90
2017-09-04T00:47:01.164Z,99.90
2017-09-04T00:49:28.838Z,99.90
2017-09-04T00:51:56.494Z,99.90
2017-09-04T00:54:24.154Z,99.90
2017-09-04T00:56:51.784Z,99.90
2017-09-04T00:59:19.444Z,99.90
2017-09-04T01:01:47.067Z,99.90
2017-09-04T01:04:14.681Z,99.90
2017-09-04T01:06:42.327Z,99.90
2017-09-04T01:09:11.029Z,99.90
2017-09-04T01:11:38.682Z,99.90
2017-09-04T01:14:10.158Z,99.90
2017-09-04T01:16:37.811Z,99.90
2017-09-04T01:19:05.515Z,99.90
2017-09-04T01:21:33.166Z,99.90
2017-09-04T01:24:00.839Z,99.90
2017-09-04T01:26:28.463Z,99.90
2017-09-04T01:28:56.107Z,99.90
2017-09-04T01:31:23.766Z,99.90
2017-09-04T01:33:51.734Z,99.90
2017-09-04T01:36:19.344Z,99.90
2017-09-04T01:38:47.056Z,99.90
2017-09-04T01:41:14.678Z,99.90
2017-09-04T01:43:42.292Z,99.90
2017-09-04T01:46:10.175Z,99.90
2017-09-04T01:48:37.825Z,99.90
2017-09-04T01:51:05.504Z,99.90
2017-09-04T01:53:33.158Z,99.90
2017-09-04T01:56:00.820Z,99.90
2017-09-04T01:58:28.462Z,99.90
2017-09-04T02:00:56.156Z,99.90
2017-09-04T02:03:23.789Z,99.90
2017-09-04T02:05:51.464Z,99.90
2017-09-04T02:08:19.124Z,99.90
2017-09-04T02:10:46.755Z,99.90
2017-09-04T02:13:14.441Z,99.90
2017-09-04T02:15:42.085Z,99.90
2017-09-04T02:18:12.539Z,99.90
2017-09-04T02:20:40.654Z,99.90
2017-09-04T02:23:08.643Z,99.90
2017-09-04T02:25:36.668Z,99.90
2017-09-04T02:28:04.329Z,99.90
2017-09-04T02:30:32.009Z,99.90
2017-09-04T02:32:59.639Z,99.90
2017-09-04T02:35:27.319Z,99.90
2017-09-04T02:37:54.982Z,99.90
2017-09-04T02:40:22.651Z,99.90
2017-09-04T02:42:50.302Z,99.90
2017-09-04T02:45:17.953Z,99.90
2017-09-04T02:47:45.628Z,99.90
2017-09-04T02:50:13.292Z,99.90
2017-09-04T02:52:40.953Z,99.90
2017-09-04T02:55:08.581Z,99.90
2017-09-04T02:57:36.265Z,99.90
2017-09-04T03:00:04.336Z,99.90
2017-09-04T03:02:31.989Z,99.90
2017-09-04T03:04:59.648Z,99.90
2017-09-04T03:07:27.279Z,99.90
2017-09-04T03:09:54.939Z,99.90
2017-09-04T03:12:22.580Z,99.90
2017-09-04T03:14:50.212Z,99.90
2017-09-04T03:17:17.917Z,99.90
2017-09-04T03:19:45.529Z,99.90
2017-09-04T03:22:13.180Z,99.90
2017-09-04T03:24:40.931Z,99.90
2017-09-04T03:27:08.827Z,99.90
2017-09-04T03:29:36.496Z,99.90
2017-09-04T03:32:04.188Z,99.90
2017-09-04T03:34:31.870Z,99.90
2017-09-04T03:36:59.556Z,99.90
2017-09-04T03:39:27.352Z,99.90
2017-09-04T03:41:55.099Z,99.90
2017-09-04T03:44:22.780Z,99.90
2017-09-04T03:46:50.558Z,99.90
2017-09-04T03:49:18.222Z,99.90
2017-09-04T03:51:45.857Z,99.90
2017-09-04T03:54:13.596Z,99.90
2017-09-04T03:56:41.304Z,99.90
2017-09-04T03:59:08.978Z,99.90
2017-09-04T04:01:36.682Z,99.90
2017-09-04T04:04:04.378Z,99.90
2017-09-04T04:06:32.080Z,99.90
2017-09-04T04:08:59.754Z,99.90
2017-09-04T04:11:27.452Z,99.90
2017-09-04T04:13:55.093Z,99.90
2017-09-04T04:16:22.952Z,99.90
2017-09-04T04:18:50.596Z,99.90
2017-09-04T04:21:18.304Z,99.90
2017-09-04T04:23:46.027Z,99.90
2017-09-04T04:26:13.667Z,99.90
2017-09-04T04:28:41.340Z,99.90
2017-09-04T04:31:09.304Z,99.90
2017-09-04T04:33:36.977Z,99.90
2017-09-04T04:36:04.690Z,99.90
2017-09-04T04:38:32.368Z,99.90
2017-09-04T04:43:31.864Z,99.90
2017-09-04T04:45:59.473Z,99.90
2017-09-04T04:48:27.112Z,99.90
2017-09-04T04:50:54.748Z,99.90
2017-09-04T04:53:22.676Z,99.90
2017-09-04T04:55:50.319Z,99.90
2017-09-04T04:58:17.939Z,99.90
2017-09-04T05:00:45.597Z,99.90
2017-09-04T05:03:13.722Z,99.90
2017-09-04T05:05:41.634Z,99.90
2017-09-04T05:08:09.348Z,99.90
2017-09-04T05:10:36.968Z,99.90
2017-09-04T05:13:04.613Z,99.90
2017-09-04T05:15:32.304Z,99.90
2017-09-04T05:17:59.927Z,99.90
2017-09-04T05:20:27.592Z,99.90
2017-09-04T05:22:55.288Z,99.90
2017-09-04T05:25:22.924Z,99.90
2017-09-04T05:27:50.554Z,99.90
2017-09-04T05:30:18.361Z,99.90
2017-09-04T05:32:45.995Z,99.90
2017-09-04T05:35:13.788Z,99.90
2017-09-04T05:37:41.446Z,99.90
2017-09-04T05:40:09.107Z,99.90
2017-09-04T05:42:36.785Z,99.90
2017-09-04T05:45:04.637Z,99.90
2017-09-04T05:47:32.300Z,99.90
2017-09-04T05:50:00.007Z,99.90
2017-09-04T05:52:27.662Z,99.90
2017-09-04T05:54:55.646Z,99.90
2017-09-04T05:57:23.371Z,99.90
2017-09-04T05:59:51.028Z,99.90
2017-09-04T06:02:18.816Z,99.90
2017-09-04T06:04:46.516Z,99.90
2017-09-04T06:07:15.892Z,99.90
2017-09-04T06:09:43.582Z,99.90
2017-09-04T06:12:11.331Z,99.90
2017-09-04T06:14:38.990Z,99.90
2017-09-04T06:17:06.761Z,99.90
2017-09-04T06:19:34.391Z,99.90
2017-09-04T06:22:02.005Z,99.90
2017-09-04T06:24:29.951Z,99.90
2017-09-04T06:26:57.658Z,99.90
2017-09-04T06:29:25.373Z,99.90
2017-09-04T06:31:53.128Z,99.90
2017-09-04T06:34:20.819Z,99.90
2017-09-04T06:36:48.475Z,99.90
2017-09-04T06:39:16.263Z,99.90
2017-09-04T06:41:43.912Z,99.90
2017-09-04T06:44:11.554Z,99.90
2017-09-04T06:46:39.242Z,99.90
2017-09-04T06:49:07.001Z,99.90
2017-09-04T06:51:34.622Z,99.90
2017-09-04T06:54:02.313Z,99.90
2017-09-04T06:56:29.923Z,99.90
2017-09-04T06:58:57.533Z,99.90
2017-09-04T07:01:25.985Z,99.90
2017-09-04T07:03:53.906Z,99.90
2017-09-04T07:06:23.254Z,99.90
2017-09-04T07:08:50.885Z,99.90
2017-09-04T07:11:18.534Z,99.90
2017-09-04T07:13:46.183Z,99.90
2017-09-04T07:16:14.017Z,99.90
2017-09-04T07:18:41.668Z,99.90
2017-09-04T07:21:09.408Z,99.90
2017-09-04T07:23:37.040Z,99.90
2017-09-04T07:26:04.776Z,99.90
2017-09-04T07:28:32.420Z,99.90
2017-09-04T07:31:00.031Z,99.90
2017-09-04T07:33:27.650Z,99.90
2017-09-04T07:35:55.366Z,99.90
2017-09-04T07:38:23.026Z,99.90
2017-09-04T07:40:50.647Z,99.90
2017-09-04T07:43:18.810Z,99.90
2017-09-04T07:45:46.423Z,99.90
2017-09-04T07:48:14.210Z,99.20
2017-09-04T07:50:41.833Z,99.50
2017-09-04T07:53:09.709Z,98.60
2017-09-04T07:55:37.455Z,97.90
2017-09-04T07:58:05.083Z,99.00
2017-09-04T08:00:32.692Z,97.50
2017-09-04T08:03:00.332Z,97.60
2017-09-04T08:05:27.940Z,97.20
2017-09-04T08:07:55.577Z,97.80
2017-09-04T08:10:23.200Z,97.40
2017-09-04T08:12:50.789Z,95.60
2017-09-04T08:15:18.371Z,96.10
2017-09-04T08:17:46.029Z,95.20
2017-09-04T08:20:13.801Z,94.70
2017-09-04T08:22:41.400Z,94.10
2017-09-04T08:25:09.526Z,93.70
2017-09-04T08:27:37.196Z,94.70
2017-09-04T08:30:04.813Z,95.20
2017-09-04T08:32:32.423Z,92.60
2017-09-04T08:35:00.054Z,92.20
2017-09-04T08:37:28.275Z,93.10
2017-09-04T08:39:55.890Z,90.30
2017-09-04T08:42:24.095Z,91.00
2017-09-04T08:44:51.935Z,91.40
2017-09-04T08:47:19.517Z,91.20
2017-09-04T08:49:47.175Z,90.30
2017-09-04T08:52:14.779Z,90.90
2017-09-04T08:54:42.393Z,90.30
2017-09-04T08:57:10.797Z,88.90
2017-09-04T08:59:38.432Z,88.60
2017-09-04T09:02:06.072Z,88.90
2017-09-04T09:04:33.699Z,86.80
2017-09-04T09:07:01.298Z,89.50
2017-09-04T09:09:28.927Z,87.30
2017-09-04T09:11:56.539Z,84.70
2017-09-04T09:14:24.162Z,85.60
2017-09-04T09:16:51.803Z,84.00
2017-09-04T09:19:19.412Z,87.50
2017-09-04T09:21:47.024Z,88.20
2017-09-04T09:24:14.706Z,82.90
2017-09-04T09:26:42.344Z,82.80
2017-09-04T09:29:10.526Z,85.00
2017-09-04T09:31:38.197Z,83.60
2017-09-04T09:34:05.821Z,82.50
2017-09-04T09:36:33.427Z,82.50
2017-09-04T09:39:01.060Z,81.20
2017-09-04T09:41:28.644Z,83.30
2017-09-04T09:43:56.248Z,84.80
2017-09-04T09:46:24.532Z,82.60
2017-09-04T09:48:52.169Z,82.90
2017-09-04T09:51:20.226Z,85.30
2017-09-04T09:53:47.931Z,84.20
2017-09-04T09:56:15.555Z,85.00
2017-09-04T09:58:43.171Z,86.30
2017-09-04T10:01:10.809Z,86.30
2017-09-04T10:03:40.136Z,87.90
2017-09-04T10:06:07.840Z,88.40
2017-09-04T10:08:35.562Z,88.60
2017-09-04T10:11:03.195Z,85.90
2017-09-04T10:13:31.270Z,85.60
2017-09-04T10:15:58.912Z,84.40
2017-09-04T10:18:26.575Z,84.20
2017-09-04T10:20:55.474Z,83.80
2017-09-04T10:23:23.112Z,82.60
2017-09-04T10:25:55.369Z,85.80
2017-09-04T10:28:25.934Z,85.10
2017-09-04T10:30:53.708Z,86.00
2017-09-04T10:33:21.481Z,83.10
2017-09-04T10:35:49.176Z,84.60
2017-09-04T10:38:16.847Z,85.60
2017-09-04T10:40:44.453Z,85.00
2017-09-04T10:43:12.058Z,85.80
2017-09-04T10:45:39.770Z,85.70
2017-09-04T10:48:07.400Z,78.60
2017-09-04T10:50:35.036Z,79.70
2017-09-04T10:53:02.715Z,78.70
2017-09-04T10:55:33.184Z,77.90
2017-09-04T10:58:01.009Z,82.30
2017-09-04T11:00:28.839Z,81.30
2017-09-04T11:02:56.524Z,83.70
2017-09-04T11:05:24.352Z,79.20
2017-09-04T11:07:52.078Z,79.80
2017-09-04T11:10:19.811Z,79.20
2017-09-04T11:12:47.453Z,79.70
2017-09-04T11:15:15.152Z,80.00
2017-09-04T11:17:42.815Z,76.80
2017-09-04T11:20:10.469Z,76.90
2017-09-04T11:22:38.197Z,76.80
2017-09-04T11:25:06.286Z,79.10
2017-09-04T11:27:33.897Z,78.50
2017-09-04T11:30:01.641Z,77.10
2017-09-04T11:32:29.343Z,77.60
2017-09-04T11:34:56.980Z,75.60
2017-09-04T11:37:25.321Z,77.00
2017-09-04T11:39:53.009Z,78.00
2017-09-04T11:42:20.751Z,76.70
2017-09-04T11:44:48.773Z,75.10
2017-09-04T11:47:16.395Z,73.30
2017-09-04T11:49:44.056Z,74.90
2017-09-04T11:52:11.734Z,71.10
2017-09-04T11:54:39.366Z,74.30
2017-09-04T11:57:07.135Z,75.60
2017-09-04T11:59:34.854Z,74.20
2017-09-04T12:02:02.506Z,72.30
2017-09-04T12:04:30.156Z,75.20
2017-09-04T12:06:57.839Z,72.80
2017-09-04T12:09:26.485Z,74.60
2017-09-04T12:11:54.221Z,71.30
2017-09-04T12:14:21.941Z,68.30
2017-09-04T12:16:49.615Z,73.70
2017-09-04T12:19:17.564Z,72.60
2017-09-04T12:21:45.193Z,69.20
2017-09-04T12:24:12.828Z,70.40
2017-09-04T12:26:40.544Z,71.80
2017-09-04T12:29:08.273Z,69.50
2017-09-04T12:31:35.890Z,74.80
2017-09-04T12:34:03.570Z,69.30
2017-09-04T12:36:31.221Z,73.40
2017-09-04T12:38:58.870Z,72.90
2017-09-04T12:41:26.544Z,75.40
2017-09-04T12:43:54.167Z,72.60
2017-09-04T12:46:23.075Z,75.60
2017-09-04T12:48:50.748Z,73.90
2017-09-04T12:51:18.573Z,72.30
2017-09-04T12:53:46.316Z,74.00
2017-09-04T12:56:13.963Z,75.60
2017-09-04T12:58:41.609Z,75.20
2017-09-04T13:01:09.278Z,78.90
2017-09-04T13:03:36.974Z,86.10
2017-09-04T13:06:04.619Z,81.70
2017-09-04T13:08:32.210Z,84.00
2017-09-04T13:14:00.929Z,80.20
2017-09-04T13:16:34.108Z,76.50
2017-09-04T13:19:21.500Z,84.70
2017-09-04T13:24:56.505Z,85.00
2017-09-04T13:27:29.646Z,83.40
2017-09-04T13:30:13.028Z,78.60
2017-09-04T13:32:46.274Z,74.10
2017-09-04T13:35:19.549Z,73.80
2017-09-04T13:37:52.854Z,73.30
2017-09-04T13:40:40.134Z,73.50
2017-09-04T13:43:13.428Z,71.30
2017-09-04T13:45:46.703Z,84.70
2017-09-04T13:48:19.906Z,85.30
2017-09-04T13:50:52.966Z,83.10
2017-09-04T13:53:26.176Z,86.00
2017-09-04T13:55:59.492Z,81.60
2017-09-04T13:58:36.996Z,82.60
2017-09-04T14:04:19.393Z,70.20
2017-09-04T14:06:52.598Z,70.20
2017-09-04T14:09:25.828Z,70.20
2017-09-04T14:15:06.584Z,74.00
2017-09-04T14:17:39.914Z,71.50
2017-09-04T14:20:07.547Z,67.40
2017-09-04T14:22:35.145Z,70.50
2017-09-04T14:25:02.894Z,68.70
2017-09-04T14:27:32.423Z,71.90
2017-09-04T14:30:00.152Z,71.30
2017-09-04T14:32:27.791Z,64.80
2017-09-04T14:34:55.436Z,63.50
2017-09-04T14:37:23.107Z,62.70
2017-09-04T14:39:50.751Z,66.00
2017-09-04T14:42:18.413Z,59.50
2017-09-04T14:44:49.008Z,61.80
2017-09-04T14:47:21.228Z,60.00
2017-09-04T14:49:51.577Z,61.40
2017-09-04T14:52:19.213Z,59.60
2017-09-04T14:54:46.882Z,60.90
2017-09-04T14:57:14.983Z,60.90
2017-09-04T14:59:42.810Z,60.10
2017-09-04T15:02:10.466Z,61.00
2017-09-04T15:04:38.076Z,62.50
2017-09-04T15:07:05.687Z,60.90
2017-09-04T15:09:33.312Z,66.30
2017-09-04T15:12:00.948Z,67.20
2017-09-04T15:14:28.602Z,72.10
2017-09-04T15:16:56.226Z,70.40
2017-09-04T15:19:23.891Z,72.80
2017-09-04T15:21:51.513Z,72.40
2017-09-04T15:24:19.140Z,71.10
2017-09-04T15:26:46.818Z,71.80
2017-09-04T15:29:14.467Z,69.90
2017-09-04T15:31:42.954Z,71.00
2017-09-04T15:34:10.831Z,74.90
2017-09-04T15:36:38.441Z,75.30
2017-09-04T15:39:06.174Z,72.50
2017-09-04T15:41:33.798Z,76.20
2017-09-04T15:44:01.416Z,75.00
2017-09-04T15:46:29.065Z,75.40
2017-09-04T15:48:56.727Z,70.60
2017-09-04T15:51:24.384Z,73.90
2017-09-04T15:53:51.995Z,74.00
2017-09-04T15:56:19.817Z,73.00
2017-09-04T15:58:47.484Z,74.50
2017-09-04T16:01:15.165Z,73.30
2017-09-04T16:03:42.777Z,74.60
2017-09-04T16:06:26.169Z,74.50
2017-09-04T16:08:53.820Z,74.50
2017-09-04T16:11:22.391Z,71.30
2017-09-04T16:13:51.992Z,75.20
2017-09-04T16:16:20.766Z,74.90
2017-09-04T16:19:06.893Z,76.90
2017-09-04T16:21:36.686Z,75.50
2017-09-04T16:24:05.929Z,76.50
2017-09-04T16:26:46.245Z,76.60
2017-09-04T16:29:25.529Z,77.10
2017-09-04T16:31:55.801Z,80.70
2017-09-04T16:34:29.590Z,83.10
2017-09-04T16:40:00.532Z,85.80
2017-09-04T16:42:40.940Z,86.40
2017-09-04T16:45:25.332Z,88.00
2017-09-04T16:47:58.498Z,90.20
2017-09-04T16:50:27.686Z,90.90
2017-09-04T16:52:55.776Z,90.40
2017-09-04T16:55:25.812Z,90.40
2017-09-04T16:57:53.407Z,90.20
2017-09-04T17:00:21.057Z,91.00
2017-09-04T17:02:48.724Z,91.30
2017-09-04T17:05:16.351Z,91.90
2017-09-04T17:07:43.974Z,92.40
2017-09-04T17:13:11.744Z,94.40
2017-09-04T17:15:39.940Z,94.60
2017-09-04T17:18:23.919Z,94.40
2017-09-04T17:20:56.158Z,94.30
2017-09-04T17:23:23.887Z,94.80
2017-09-04T17:25:51.528Z,95.20
2017-09-04T17:28:19.264Z,95.40
2017-09-04T17:30:46.901Z,95.40
2017-09-04T17:33:14.604Z,95.50
2017-09-04T17:35:43.621Z,96.00
2017-09-04T17:38:14.216Z,96.10
2017-09-04T17:40:41.869Z,96.50
2017-09-04T17:43:09.934Z,96.60
2017-09-04T17:45:38.482Z,97.10
2017-09-04T17:48:07.068Z,97.30
2017-09-04T17:50:34.757Z,97.70
2017-09-04T17:53:02.459Z,97.40
2017-09-04T17:55:30.488Z,97.60
2017-09-04T17:57:58.336Z,97.60
2017-09-04T18:00:26.025Z,97.40
2017-09-04T18:02:53.713Z,97.30
2017-09-04T18:05:21.578Z,97.40
2017-09-04T18:07:49.288Z,97.10
2017-09-04T18:10:16.917Z,97.30
2017-09-04T18:12:44.540Z,97.20
2017-09-04T18:15:12.336Z,97.40
2017-09-04T18:17:39.931Z,97.60
2017-09-04T18:20:07.610Z,98.10
2017-09-04T18:22:35.246Z,98.70
2017-09-04T18:25:03.016Z,99.10
2017-09-04T18:27:30.795Z,98.90
2017-09-04T18:29:58.509Z,99.00
2017-09-04T18:32:26.170Z,98.90
2017-09-04T18:34:53.891Z,99.10
2017-09-04T18:37:21.547Z,99.10
2017-09-04T18:39:49.182Z,99.00
2017-09-04T18:42:16.901Z,99.20
2017-09-04T18:44:44.620Z,99.60
2017-09-04T18:47:13.187Z,99.70
2017-09-04T18:49:40.876Z,99.90
2017-09-04T18:52:08.529Z,99.90
2017-09-04T18:54:36.217Z,99.90
2017-09-04T18:57:04.068Z,99.70
2017-09-04T18:59:31.732Z,99.80
2017-09-04T19:01:59.386Z,99.90
2017-09-04T19:04:27.048Z,99.60
2017-09-04T19:06:54.660Z,99.60
2017-09-04T19:09:22.357Z,99.60
2017-09-04T19:11:49.944Z,99.20
2017-09-04T19:14:17.558Z,99.30
2017-09-04T19:16:45.275Z,99.40
2017-09-04T19:19:12.929Z,99.40
2017-09-04T19:21:40.570Z,99.30
2017-09-04T19:24:08.223Z,99.40
2017-09-04T19:26:35.857Z,99.20
2017-09-04T19:29:03.525Z,99.00
2017-09-04T19:31:31.250Z,99.20
2017-09-04T19:33:58.916Z,99.30
2017-09-04T19:36:26.600Z,99.20
2017-09-04T19:38:54.272Z,99.40
2017-09-04T19:41:21.942Z,99.70
2017-09-04T19:43:49.581Z,99.90
2017-09-04T19:46:17.221Z,99.90
2017-09-04T19:48:44.899Z,99.80
2017-09-04T19:51:12.536Z,99.90
2017-09-04T19:53:40.423Z,99.90
2017-09-04T19:56:08.044Z,99.90
2017-09-04T19:58:35.686Z,99.70
2017-09-04T20:01:03.399Z,99.80
2017-09-04T20:03:31.028Z,99.70
2017-09-04T20:05:58.912Z,99.60
2017-09-04T20:08:26.575Z,99.60
2017-09-04T20:10:54.258Z,99.80
2017-09-04T20:13:21.897Z,99.90
2017-09-04T20:15:49.560Z,99.90
2017-09-04T20:18:17.279Z,99.90
2017-09-04T20:20:44.922Z,99.90
2017-09-04T20:23:12.765Z,99.90
2017-09-04T20:25:40.426Z,99.90
2017-09-04T20:28:08.048Z,99.90
2017-09-04T20:30:35.717Z,99.90
2017-09-04T20:33:03.390Z,99.90
2017-09-04T20:35:31.038Z,99.90
2017-09-04T20:37:58.711Z,99.90
2017-09-04T20:40:26.388Z,99.90
2017-09-04T20:42:54.160Z,99.90
2017-09-04T20:45:21.898Z,99.90
2017-09-04T20:47:49.596Z,99.90
2017-09-04T20:50:17.267Z,99.90
2017-09-04T20:52:44.982Z,99.90
2017-09-04T20:55:12.671Z,99.90
2017-09-04T20:57:40.351Z,99.90
2017-09-04T21:00:08.592Z,99.90
2017-09-04T21:02:36.575Z,99.90
2017-09-04T21:05:04.238Z,99.90
2017-09-04T21:07:31.921Z,99.90
2017-09-04T21:10:00.361Z,99.90
2017-09-04T21:12:28.026Z,99.90
2017-09-04T21:14:55.708Z,99.90
2017-09-04T21:17:23.753Z,99.90
2017-09-04T21:19:51.385Z,99.90
2017-09-04T21:22:19.108Z,99.90
2017-09-04T21:24:47.134Z,99.90
2017-09-04T21:27:14.892Z,99.90
2017-09-04T21:29:42.696Z,99.90
2017-09-04T21:32:10.542Z,99.90
2017-09-04T21:34:38.266Z,99.90
2017-09-04T21:37:06.061Z,99.90
2017-09-04T21:39:33.795Z,99.90
2017-09-04T21:42:01.430Z,99.90
2017-09-04T21:44:29.130Z,99.90
2017-09-04T21:46:56.784Z,99.90
2017-09-04T21:51:56.415Z,99.90
2017-09-04T21:54:24.085Z,99.90
2017-09-04T21:56:51.747Z,99.90
2017-09-04T21:59:19.382Z,99.90
2017-09-04T22:01:48.343Z,99.90
2017-09-04T22:04:16.237Z,99.90
2017-09-04T22:06:43.880Z,99.90
2017-09-04T22:09:11.733Z,99.90
2017-09-04T22:11:39.375Z,99.90
2017-09-04T22:14:07.015Z,99.90
2017-09-04T22:16:34.687Z,99.90
2017-09-04T22:19:08.813Z,99.90
2017-09-04T22:21:36.632Z,99.90
2017-09-04T22:24:04.269Z,99.90
2017-09-04T22:26:32.540Z,99.90
2017-09-04T22:29:01.147Z,99.90
2017-09-04T22:31:28.798Z,99.90
2017-09-04T22:33:56.480Z,99.90
2017-09-04T22:36:24.179Z,99.90
2017-09-04T22:38:54.085Z,99.90
2017-09-04T22:41:22.807Z,99.90
2017-09-04T22:43:50.480Z,99.90
2017-09-04T22:46:18.143Z,99.90
2017-09-04T22:48:45.761Z,99.90
2017-09-04T22:51:13.734Z,99.90
2017-09-04T22:53:41.404Z,99.90
2017-09-04T22:56:09.073Z,99.90
2017-09-04T22:58:37.553Z,99.90
2017-09-04T23:01:05.246Z,99.90
2017-09-04T23:03:32.954Z,99.90
2017-09-04T23:06:00.679Z,99.90
2017-09-04T23:08:28.760Z,99.90
2017-09-04T23:10:56.456Z,99.90
2017-09-04T23:13:24.106Z,99.90
2017-09-04T23:15:51.751Z,99.90
2017-09-04T23:18:19.459Z,99.90
2017-09-04T23:20:47.776Z,99.90
2017-09-04T23:23:15.472Z,99.90
2017-09-04T23:25:43.136Z,99.90
2017-09-04T23:28:10.941Z,99.90
2017-09-04T23:30:38.633Z,99.90
2017-09-04T23:33:06.293Z,99.90
2017-09-04T23:35:34.081Z,99.90
2017-09-04T23:38:01.726Z,99.90
2017-09-04T23:40:29.399Z,99.90
2017-09-04T23:42:57.108Z,99.90
2017-09-04T23:45:24.863Z,99.90
2017-09-04T23:47:52.625Z,99.90
2017-09-04T23:50:20.319Z,99.90
2017-09-04T23:52:48.021Z,99.90
2017-09-04T23:55:15.771Z,99.90
2017-09-04T23:57:43.478Z,99.90
